Time;durP1;ratioP1;P1;durP2;ratioP2;P2;SDS_P1;SDS_P2;PMS_P1;PMS_P2;Temp;Humidity;BMP_temperature;BMP_pressure;BME280_temperature;BME280_humidity;BME280_pressure;Samples;Min_cycle;Max_cycle;Signal;HPM_P1;HPM_P2
2023/10/14 00:01:15;;;;;;;11.60;6.90;;;;;;;15.72;50.32;101020.55;108142;1286;21996;-57
2023/10/14 00:03:42;;;;;;;10.20;6.70;;;;;;;15.68;50.40;101016.76;108142;1279;21993;-69
2023/10/14 00:06:11;;;;;;;12.10;6.60;;;;;;;15.68;50.45;101012.02;108119;1279;21974;-57
2023/10/14 00:11:22;;;;;;;11.90;7.20;;;;;;;15.71;50.73;101012.27;108128;1279;21990;-69
2023/10/14 00:13:52;;;;;;;12.40;7.80;;;;;;;15.73;50.89;101010.28;108177;1286;21997;-69
2023/10/14 00:18:55;;;;;;;10.80;6.40;;;;;;;15.78;50.82;101009.30;108134;1286;22016;-69
2023/10/14 00:21:26;;;;;;;17.20;8.40;;;;;;;15.78;50.79;101007.35;108193;1279;21977;-57
2023/10/14 00:23:56;;;;;;;12.70;7.10;;;;;;;15.79;50.76;101003.62;108184;1286;22008;-69
2023/10/14 00:26:25;;;;;;;12.60;6.80;;;;;;;15.75;50.37;101003.87;108165;1284;23700;-57
2023/10/14 00:28:54;;;;;;;12.50;7.40;;;;;;;15.64;50.09;101004.33;108130;1286;22046;-70
2023/10/14 00:31:23;;;;;;;13.20;8.00;;;;;;;15.52;49.98;101005.83;108131;1276;21990;-57
2023/10/14 00:33:52;;;;;;;14.00;8.70;;;;;;;15.46;50.08;101004.73;108209;1279;22096;-69
2023/10/14 00:36:21;;;;;;;15.80;9.60;;;;;;;15.43;50.19;101006.91;108146;1276;23779;-57
2023/10/14 00:38:55;;;;;;;14.30;8.70;;;;;;;15.41;50.24;101001.31;108264;1276;22456;-57
2023/10/14 00:41:25;;;;;;;14.90;9.50;;;;;;;15.39;50.34;100998.34;108185;1286;22037;-57
2023/10/14 00:43:51;;;;;;;16.40;11.10;;;;;;;15.38;50.27;100993.95;108167;1276;22052;-57
2023/10/14 00:46:16;;;;;;;21.30;12.80;;;;;;;15.35;50.34;100995.95;108106;1286;21989;-70
2023/10/14 00:48:46;;;;;;;17.80;12.90;;;;;;;15.31;50.32;100996.55;107346;1282;1002349;-70
2023/10/14 00:51:15;;;;;;;19.80;12.80;;;;;;;15.27;50.34;100996.65;108156;1276;23731;-69
2023/10/14 00:53:51;;;;;;;18.70;11.80;;;;;;;15.24;50.41;100997.95;108094;1280;21990;-57
2023/10/14 00:56:19;;;;;;;19.00;10.60;;;;;;;15.24;50.62;100997.23;108102;1276;22007;-57
2023/10/14 00:58:50;;;;;;;19.70;13.30;;;;;;;15.26;50.72;100993.48;109611;1280;22028;-57
2023/10/14 01:01:17;;;;;;;20.80;13.20;;;;;;;15.26;50.84;100995.78;108170;1286;21992;-57
2023/10/14 01:03:43;;;;;;;22.80;13.70;;;;;;;15.21;50.66;100997.67;108173;1286;22028;-69
2023/10/14 01:06:55;;;;;;;31.80;16.30;;;;;;;15.15;50.71;100999.05;108110;1279;23452;-59
2023/10/14 01:08:54;;;;;;;21.50;13.30;;;;;;;15.11;50.74;101001.23;108057;1286;22079;-70
2023/10/14 01:11:24;;;;;;;19.20;11.40;;;;;;;15.12;50.87;101000.16;108123;1278;22032;-58
2023/10/14 01:13:51;;;;;;;14.60;10.40;;;;;;;15.15;51.03;100997.98;108080;1280;21994;-69
2023/10/14 01:16:21;;;;;;;20.00;11.20;;;;;;;15.20;51.14;100994.01;108123;1286;21992;-69
2023/10/14 01:18:48;;;;;;;16.60;11.90;;;;;;;15.23;51.20;100987.71;108129;1276;21993;-66
2023/10/14 01:21:13;;;;;;;15.60;10.70;;;;;;;15.25;51.17;100988.73;108192;1273;21990;-57
2023/10/14 01:23:50;;;;;;;19.10;12.60;;;;;;;15.27;51.11;100989.58;108090;1286;21990;-69
2023/10/14 01:26:16;;;;;;;21.60;13.90;;;;;;;15.29;51.06;100989.18;108137;1286;21986;-56
2023/10/14 01:28:52;;;;;;;22.90;14.60;;;;;;;15.29;50.97;100985.64;108122;1280;21992;-60
2023/10/14 01:33:56;;;;;;;24.90;13.50;;;;;;;15.30;50.77;100981.20;108106;1279;21988;-57
2023/10/14 01:36:32;;;;;;;19.10;12.40;;;;;;;15.29;50.78;100981.41;108129;1286;22007;-58
2023/10/14 01:39:04;;;;;;;17.50;11.50;;;;;;;15.30;50.73;100981.91;108116;1280;21997;-57
2023/10/14 01:41:30;;;;;;;25.80;14.20;;;;;;;15.30;50.64;100977.49;108130;1280;21993;-69
2023/10/14 01:44:02;;;;;;;21.90;13.70;;;;;;;15.28;50.49;100976.66;108179;1280;22043;-57
2023/10/14 01:46:30;;;;;;;22.90;13.00;;;;;;;15.24;50.46;100973.73;108168;1273;21990;-69
2023/10/14 01:48:55;;;;;;;26.40;15.20;;;;;;;15.21;50.44;100978.94;108111;1283;21999;-69
2023/10/14 01:51:21;;;;;;;25.80;14.30;;;;;;;15.18;50.41;100980.06;108110;1279;23151;-69
2023/10/14 01:53:47;;;;;;;24.70;13.70;;;;;;;15.14;50.35;100980.84;108114;1286;21999;-69
2023/10/14 01:56:12;;;;;;;18.90;12.80;;;;;;;15.12;50.42;100979.30;108100;1273;22017;-69
2023/10/14 01:58:40;;;;;;;23.50;12.10;;;;;;;15.11;50.43;100978.80;108095;1280;21997;-57
2023/10/14 02:03:47;;;;;;;18.00;12.30;;;;;;;15.09;50.34;100980.77;108123;1282;21990;-57
2023/10/14 02:06:16;;;;;;;18.10;12.70;;;;;;;15.05;50.18;100976.98;108143;1286;21998;-70
2023/10/14 02:08:51;;;;;;;22.80;12.90;;;;;;;14.98;50.09;100972.90;108111;1276;22003;-57
2023/10/14 02:11:20;;;;;;;26.40;15.50;;;;;;;14.89;50.03;100973.95;108124;1276;21992;-69
2023/10/14 02:13:46;;;;;;;24.30;14.10;;;;;;;14.81;50.14;100974.99;108104;1279;21993;-69
2023/10/14 02:16:12;;;;;;;19.10;12.40;;;;;;;14.79;50.40;100975.76;108129;1279;22037;-57
2023/10/14 02:18:38;;;;;;;20.50;11.50;;;;;;;14.78;50.62;100970.47;108264;1286;22043;-67
2023/10/14 02:21:11;;;;;;;21.40;12.20;;;;;;;14.80;50.70;100967.79;108127;1280;22039;-67
2023/10/14 02:23:47;;;;;;;20.30;11.90;;;;;;;14.82;50.79;100970.20;108096;1279;21993;-68
2023/10/14 02:26:22;;;;;;;21.10;12.90;;;;;;;14.82;50.82;100971.96;108124;1286;21992;-67
2023/10/14 02:28:49;;;;;;;23.10;14.70;;;;;;;14.81;50.77;100971.99;108086;1286;22270;-60
2023/10/14 02:31:17;;;;;;;28.80;16.10;;;;;;;14.79;50.68;100976.29;108149;1286;21995;-57
2023/10/14 02:33:47;;;;;;;30.40;17.30;;;;;;;14.77;50.62;100972.79;108122;1280;21993;-57
2023/10/14 02:36:16;;;;;;;25.80;14.30;;;;;;;14.79;50.63;100971.16;108158;1276;21999;-56
2023/10/14 02:38:54;;;;;;;27.20;17.30;;;;;;;14.91;51.26;100967.20;108163;1280;21993;-66
2023/10/14 02:41:20;;;;;;;32.50;17.80;;;;;;;15.14;51.23;100966.00;108104;1286;21997;-56
2023/10/14 02:43:49;;;;;;;32.00;21.00;;;;;;;15.23;50.44;100967.58;108156;1279;21989;-57
2023/10/14 02:46:25;;;;;;;31.60;19.80;;;;;;;15.13;49.66;100967.97;108148;1279;21992;-67
2023/10/14 02:48:54;;;;;;;34.50;22.10;;;;;;;14.93;49.50;100966.10;107985;1286;21991;-56
2023/10/14 02:54:27;;;;;;;26.40;12.20;;;;;;;14.55;49.97;100969.85;106488;1286;1003227;-58
2023/10/14 02:57:00;;;;;;;25.10;11.10;;;;;;;14.42;50.31;100967.41;108118;1280;22001;-68
2023/10/14 03:02:16;;;;;;;25.30;10.90;;;;;;;14.35;50.86;100967.21;108128;1286;21971;-68
2023/10/14 03:07:30;;;;;;;21.90;10.50;;;;;;;14.38;51.07;100967.66;108143;1286;22000;-67
2023/10/14 03:12:48;;;;;;;28.20;18.60;;;;;;;14.30;50.41;100962.34;108154;1275;22004;-57
2023/10/14 03:15:20;;;;;;;25.10;17.80;;;;;;;14.24;50.40;100959.64;108178;1286;22001;-67
2023/10/14 03:17:56;;;;;;;34.50;16.00;;;;;;;14.22;50.56;100953.14;108181;1276;21990;-57
2023/10/14 03:23:23;;;;;;;74.50;12.10;;;;;;;14.18;50.57;100949.86;108142;1279;21994;-67
2023/10/14 03:25:53;;;;;;;101.80;16.10;;;;;;;14.16;50.86;100947.95;108124;1276;21976;-56
2023/10/14 03:28:19;;;;;;;41.90;11.50;;;;;;;14.16;50.82;100948.14;108139;1277;22000;-57
2023/10/14 03:30:46;;;;;;;21.60;8.30;;;;;;;14.15;50.97;100947.61;108123;1279;22000;-57
2023/10/14 03:33:20;;;;;;;14.10;8.50;;;;;;;14.13;51.23;100951.71;108111;1283;21989;-56
2023/10/14 03:36:05;;;;;;;16.10;10.00;;;;;;;14.09;51.14;100950.91;108154;1280;21997;-56
2023/10/14 03:41:04;;;;;;;14.00;8.20;;;;;;;14.05;51.43;100951.86;108177;1279;22459;-57
2023/10/14 03:43:31;;;;;;;19.10;9.10;;;;;;;14.05;51.46;100948.15;108196;1274;21995;-56
2023/10/14 03:46:03;;;;;;;21.10;8.90;;;;;;;14.06;51.36;100946.18;108276;1286;22031;-57
2023/10/14 03:48:35;;;;;;;23.60;10.00;;;;;;;14.09;51.56;100946.15;108126;1285;21998;-66
2023/10/14 03:51:05;;;;;;;25.20;11.20;;;;;;;14.15;51.88;100944.42;108185;1286;21987;-56
2023/10/14 03:53:31;;;;;;;25.70;13.20;;;;;;;14.24;51.89;100946.58;108125;1286;22014;-67
2023/10/14 03:56:00;;;;;;;21.10;12.60;;;;;;;14.30;51.72;100949.30;108167;1276;21990;-66
2023/10/14 03:58:30;;;;;;;26.60;11.30;;;;;;;14.33;51.57;100947.48;108191;1286;22001;-56
2023/10/14 04:00:57;;;;;;;28.90;12.00;;;;;;;14.37;51.60;100945.98;108153;1276;22002;-57
2023/10/14 04:03:40;;;;;;;20.00;9.60;;;;;;;14.42;51.68;100940.58;107377;1279;1002347;-67
2023/10/14 04:06:09;;;;;;;23.70;8.70;;;;;;;14.47;51.55;100934.49;108127;1276;22001;-66
2023/10/14 04:08:54;;;;;;;19.60;9.10;;;;;;;14.50;51.56;100935.86;108205;1273;21990;-67
2023/10/14 04:11:35;;;;;;;24.10;10.80;;;;;;;14.52;51.44;100935.45;108181;1286;21995;-64
2023/10/14 04:14:08;;;;;;;34.50;15.80;;;;;;;14.55;51.34;100935.75;108149;1280;21991;-65
2023/10/14 04:21:53;;;;;;;44.30;17.50;;;;;;;14.64;51.42;100935.20;108152;1286;22090;-67
2023/10/14 04:26:48;;;;;;;42.50;20.10;;;;;;;14.72;51.42;100940.55;108149;1275;22012;-67
2023/10/14 04:29:34;;;;;;;37.90;17.60;;;;;;;14.74;51.43;100942.64;108192;1285;22007;-66
2023/10/14 04:32:17;;;;;;;38.40;17.70;;;;;;;14.78;51.58;100945.02;108123;1276;21995;-57
2023/10/14 04:34:44;;;;;;;60.20;19.20;;;;;;;14.84;51.47;100948.80;108090;1286;21991;-57
2023/10/14 04:37:16;;;;;;;91.60;22.70;;;;;;;14.88;51.32;100951.02;108848;1276;21990;-67
2023/10/14 04:39:45;;;;;;;79.00;22.20;;;;;;;14.89;51.26;100952.22;108140;1274;22001;-56
2023/10/14 04:44:54;;;;;;;48.50;21.50;;;;;;;14.94;51.48;100951.59;108176;1276;21980;-66
2023/10/14 04:47:27;;;;;;;46.10;21.30;;;;;;;15.02;51.51;100950.19;107369;1285;1003087;-66
2023/10/14 04:49:53;;;;;;;41.80;22.40;;;;;;;15.09;51.49;100951.10;108085;1279;21993;-56
2023/10/14 04:52:19;;;;;;;38.70;20.70;;;;;;;15.15;51.43;100955.03;108115;1279;21998;-64
2023/10/14 04:55:08;;;;;;;45.30;20.60;;;;;;;15.17;51.19;100954.45;108135;1286;22000;-56
2023/10/14 04:57:34;;;;;;;51.00;20.60;;;;;;;15.17;51.01;100959.41;108085;1276;22088;-56
2023/10/14 05:00:08;;;;;;;37.10;19.80;;;;;;;15.16;51.06;100962.07;108128;1286;21997;-57
2023/10/14 05:02:38;;;;;;;40.80;20.30;;;;;;;15.17;51.13;100963.30;108192;1276;22002;-64
2023/10/14 05:05:07;;;;;;;32.70;17.00;;;;;;;15.17;51.18;100967.00;108126;1280;21981;-56
2023/10/14 05:07:35;;;;;;;25.50;14.20;;;;;;;15.19;51.42;100969.09;108173;1286;22000;-56
2023/10/14 05:10:08;;;;;;;19.80;11.80;;;;;;;15.23;51.59;100965.63;108460;1276;22455;-57
2023/10/14 05:12:40;;;;;;;22.40;11.50;;;;;;;15.28;51.74;100966.92;108158;1274;22026;-58
2023/10/14 05:15:19;;;;;;;16.00;10.70;;;;;;;15.34;51.84;100973.69;108144;1286;21987;-57
2023/10/14 05:17:49;;;;;;;23.50;11.90;;;;;;;15.36;51.87;100975.08;108163;1286;22019;-57
2023/10/14 05:20:28;;;;;;;19.70;13.20;;;;;;;15.35;52.13;100975.10;108215;1286;22004;-58
2023/10/14 05:22:56;;;;;;;18.50;10.80;;;;;;;15.36;52.43;100976.48;108129;1279;21995;-66
2023/10/14 05:25:27;;;;;;;38.60;11.50;;;;;;;15.40;52.80;100976.39;108152;1279;22030;-68
2023/10/14 05:27:58;;;;;;;35.90;11.80;;;;;;;15.49;53.15;100977.24;108156;1279;21991;-67
2023/10/14 05:30:32;;;;;;;25.90;9.80;;;;;;;15.60;53.49;100975.77;107423;1277;1002578;-57
2023/10/14 05:33:06;;;;;;;34.30;10.80;;;;;;;15.73;53.82;100974.20;108149;1279;21998;-67
2023/10/14 05:35:42;;;;;;;26.30;9.80;;;;;;;15.89;54.13;100972.08;108166;1286;21993;-67
2023/10/14 05:38:11;;;;;;;18.50;9.20;;;;;;;16.05;54.46;100971.67;108174;1286;21987;-68
2023/10/14 05:40:38;;;;;;;18.90;9.10;;;;;;;16.20;54.70;100967.73;108176;1280;21990;-68
2023/10/14 05:43:06;;;;;;;20.30;10.30;;;;;;;16.36;55.00;100966.25;108192;1286;22001;-66
2023/10/14 05:45:38;;;;;;;19.10;10.20;;;;;;;16.53;55.42;100963.48;108203;1282;21994;-67
2023/10/14 05:48:04;;;;;;;17.00;10.00;;;;;;;16.72;55.91;100964.91;108164;1280;22004;-56
2023/10/14 05:50:31;;;;;;;18.40;10.50;;;;;;;16.92;56.74;100968.79;108248;1286;22028;-57
2023/10/14 05:52:59;;;;;;;14.00;8.90;;;;;;;17.12;57.22;100968.91;108261;1282;21999;-67
2023/10/14 05:55:26;;;;;;;15.70;9.70;;;;;;;17.32;57.62;100968.66;108177;1285;24337;-68
2023/10/14 05:57:58;;;;;;;15.60;11.00;;;;;;;17.55;58.10;100965.83;108209;1286;22012;-67
2023/10/14 06:00:25;;;;;;;15.70;9.90;;;;;;;17.80;58.77;100966.27;108201;1280;22000;-67
2023/10/14 06:02:55;;;;;;;17.50;10.80;;;;;;;18.03;59.05;100965.89;108132;1279;21989;-67
2023/10/14 06:05:25;;;;;;;18.40;10.30;;;;;;;18.25;59.28;100963.37;108167;1286;21987;-57
2023/10/14 06:07:59;;;;;;;19.30;10.50;;;;;;;18.48;59.87;100963.44;108144;1277;21998;-58
2023/10/14 06:10:29;;;;;;;13.60;9.60;;;;;;;18.71;59.98;100959.58;108118;1278;22086;-58
2023/10/14 06:12:56;;;;;;;18.50;9.90;;;;;;;18.91;60.01;100959.55;108157;1280;22004;-58
2023/10/14 06:15:22;;;;;;;19.60;10.50;;;;;;;19.14;60.33;100960.48;108139;1284;21998;-58
2023/10/14 06:17:48;;;;;;;14.50;10.40;;;;;;;19.37;60.25;100964.58;108215;1286;21975;-67
2023/10/14 06:20:16;;;;;;;17.00;10.00;;;;;;;19.58;60.69;100961.44;108220;1279;21990;-59
2023/10/14 06:22:42;;;;;;;17.60;10.60;;;;;;;19.79;60.63;100959.68;108202;1276;22000;-68
2023/10/14 06:25:14;;;;;;;18.90;10.20;;;;;;;20.02;60.81;100957.50;108209;1280;21977;-67
2023/10/14 06:27:45;;;;;;;18.00;10.30;;;;;;;20.26;60.86;100958.63;108222;1279;21992;-58
2023/10/14 06:30:21;;;;;;;13.80;9.30;;;;;;;20.47;60.62;100958.22;108221;1280;24373;-68
2023/10/14 06:32:48;;;;;;;15.40;9.70;;;;;;;20.66;60.54;100950.41;108145;1286;21993;-68
2023/10/14 06:35:15;;;;;;;15.60;9.90;;;;;;;20.86;60.86;100947.59;108192;1279;21992;-57
2023/10/14 06:37:43;;;;;;;14.10;8.80;;;;;;;21.09;60.66;100945.29;108154;1277;21998;-57
2023/10/14 06:40:12;;;;;;;19.40;9.50;;;;;;;21.31;60.69;100946.89;108159;1286;21955;-68
2023/10/14 06:42:45;;;;;;;16.70;9.10;;;;;;;21.50;60.58;100939.93;108148;1286;23055;-68
2023/10/14 06:45:14;;;;;;;12.40;8.40;;;;;;;21.69;60.20;100942.05;108158;1286;22014;-69
2023/10/14 06:47:49;;;;;;;12.90;9.20;;;;;;;21.88;60.25;100937.20;108180;1286;21999;-68
2023/10/14 06:50:23;;;;;;;19.50;8.90;;;;;;;22.09;60.20;100936.48;108209;1286;21998;-69
2023/10/14 06:53:01;;;;;;;27.20;9.40;;;;;;;22.29;60.02;100931.84;108182;1286;21990;-68
2023/10/14 06:55:27;;;;;;;17.10;9.60;;;;;;;22.50;59.91;100929.31;108155;1286;21990;-58
2023/10/14 06:57:55;;;;;;;14.10;9.10;;;;;;;22.70;59.81;100928.79;108193;1286;21993;-61
2023/10/14 07:00:29;;;;;;;14.40;8.60;;;;;;;22.91;59.86;100925.91;108202;1286;22000;-57
2023/10/14 07:02:57;;;;;;;17.60;9.30;;;;;;;23.11;59.54;100922.08;108166;1286;21980;-67
2023/10/14 07:05:23;;;;;;;16.40;7.70;;;;;;;23.31;59.51;100920.30;108196;1286;24336;-58
2023/10/14 07:07:49;;;;;;;17.20;8.10;;;;;;;23.54;59.24;100916.98;108134;1286;21990;-58
2023/10/14 07:10:15;;;;;;;18.10;8.20;;;;;;;23.75;58.56;100915.63;108187;1286;21989;-68
2023/10/14 07:12:42;;;;;;;16.80;7.80;;;;;;;23.95;58.62;100910.83;108155;1286;21991;-68
2023/10/14 07:15:14;;;;;;;14.80;7.90;;;;;;;24.18;58.24;100913.26;108129;1286;23615;-59
2023/10/14 07:17:41;;;;;;;15.10;7.20;;;;;;;24.35;57.35;100910.59;108177;1286;21996;-58
2023/10/14 07:20:10;;;;;;;13.20;6.20;;;;;;;24.50;57.14;100907.86;108209;1286;21990;-58
2023/10/14 07:22:37;;;;;;;12.70;7.10;;;;;;;24.65;56.40;100909.08;108154;1286;22754;-58
2023/10/14 07:25:05;;;;;;;14.30;6.50;;;;;;;24.78;55.67;100907.59;108126;1286;22003;-58
2023/10/14 07:27:35;;;;;;;18.90;6.30;;;;;;;24.91;55.10;100902.77;108212;1286;21997;-68
2023/10/14 07:30:14;;;;;;;17.80;7.30;;;;;;;25.09;55.13;100901.29;108136;1286;23669;-68
2023/10/14 07:32:44;;;;;;;15.40;7.30;;;;;;;25.25;54.49;100901.52;108172;1286;23355;-58
2023/10/14 07:35:15;;;;;;;16.30;6.80;;;;;;;25.36;54.19;100901.66;108197;1286;22000;-58
2023/10/14 07:37:43;;;;;;;13.50;6.60;;;;;;;25.47;53.55;100902.20;108211;1286;21994;-58
2023/10/14 07:40:22;;;;;;;13.40;6.40;;;;;;;25.55;53.44;100898.48;108192;1286;21995;-58
2023/10/14 07:42:56;;;;;;;13.30;5.30;;;;;;;25.69;53.12;100893.61;108179;1286;21999;-68
2023/10/14 07:45:23;;;;;;;19.40;6.20;;;;;;;25.80;52.94;100887.80;108248;1286;21990;-58
2023/10/14 07:47:49;;;;;;;16.50;6.10;;;;;;;25.93;52.50;100885.28;108256;1286;22045;-59
2023/10/14 07:50:15;;;;;;;10.60;4.80;;;;;;;26.07;52.58;100884.34;108145;1286;21993;-67
2023/10/14 07:52:42;;;;;;;10.90;3.90;;;;;;;26.19;51.55;100880.09;108171;1276;21997;-58
2023/10/14 07:55:15;;;;;;;19.00;4.30;;;;;;;26.27;50.14;100879.21;108272;1277;22060;-67
2023/10/14 07:57:46;;;;;;;12.40;4.40;;;;;;;26.33;50.57;100872.53;108150;1284;22003;-60
2023/10/14 08:00:12;;;;;;;11.30;4.10;;;;;;;26.46;49.83;100875.39;108173;1286;21991;-68
2023/10/14 08:02:39;;;;;;;6.10;3.70;;;;;;;26.58;49.88;100875.02;108181;1283;22003;-61
2023/10/14 08:05:07;;;;;;;10.50;3.50;;;;;;;26.67;49.07;100875.27;108176;1280;21992;-58
2023/10/14 08:07:35;;;;;;;8.10;3.30;;;;;;;26.72;48.68;100869.52;108231;1286;21998;-58
2023/10/14 08:10:16;;;;;;;11.50;3.50;;;;;;;26.80;48.55;100870.95;108174;1283;21994;-67
2023/10/14 08:12:46;;;;;;;11.30;4.30;;;;;;;26.89;48.36;100864.05;108123;1276;21997;-68
2023/10/14 08:15:17;;;;;;;9.90;3.70;;;;;;;26.98;48.26;100859.20;108185;1286;21959;-59
2023/10/14 08:17:43;;;;;;;6.10;3.20;;;;;;;27.15;48.21;100855.96;108169;1286;22157;-59
2023/10/14 08:20:13;;;;;;;5.80;3.50;;;;;;;27.29;47.57;100855.30;108124;1286;24179;-68
2023/10/14 08:22:44;;;;;;;8.80;4.00;;;;;;;27.35;47.11;100848.59;108233;1286;23108;-65
2023/10/14 08:25:14;;;;;;;10.70;4.30;;;;;;;27.42;47.17;100848.52;108168;1277;21996;-58
2023/10/14 08:27:40;;;;;;;10.60;4.60;;;;;;;27.55;47.04;100842.15;108159;1286;21999;-68
2023/10/14 08:30:10;;;;;;;7.30;3.70;;;;;;;27.68;46.56;100840.64;108184;1278;22031;-59
2023/10/14 08:32:40;;;;;;;34.90;5.50;;;;;;;27.77;46.34;100838.18;108179;1285;23613;-67
2023/10/14 08:35:16;;;;;;;8.90;3.80;;;;;;;27.90;45.72;100837.00;108133;1280;22004;-61
2023/10/14 08:37:51;;;;;;;23.30;4.40;;;;;;;28.01;45.12;100836.46;108150;1285;22002;-66
2023/10/14 08:40:21;;;;;;;11.10;4.00;;;;;;;28.11;44.95;100835.70;108112;1283;21995;-66
2023/10/14 08:42:53;;;;;;;8.70;3.10;;;;;;;28.15;43.78;100833.21;108129;1285;21993;-58
2023/10/14 08:45:20;;;;;;;8.90;3.10;;;;;;;28.21;44.42;100830.58;108149;1288;21993;-58
2023/10/14 08:47:52;;;;;;;9.00;3.10;;;;;;;28.37;44.70;100824.63;108142;1279;21990;-67
2023/10/14 08:50:19;;;;;;;5.40;3.10;;;;;;;28.52;44.17;100823.77;108186;1286;23857;-57
2023/10/14 08:52:45;;;;;;;7.90;3.40;;;;;;;28.58;43.21;100821.13;108112;1277;21995;-57
2023/10/14 08:55:16;;;;;;;7.10;3.30;;;;;;;28.60;42.84;100819.89;108161;1283;22034;-57
2023/10/14 08:57:44;;;;;;;5.90;3.30;;;;;;;28.64;42.50;100822.13;108156;1288;21993;-58
2023/10/14 09:00:12;;;;;;;7.20;2.90;;;;;;;28.67;42.59;100816.79;108147;1283;22027;-67
2023/10/14 09:02:39;;;;;;;9.70;3.50;;;;;;;28.76;42.40;100813.34;108688;1287;21997;-57
2023/10/14 09:05:11;;;;;;;7.20;3.60;;;;;;;28.82;42.29;100809.86;108141;1279;21993;-67
2023/10/14 09:07:39;;;;;;;8.00;4.40;;;;;;;28.82;42.24;100807.84;108169;1288;22000;-58
2023/10/14 09:10:06;;;;;;;10.10;4.00;;;;;;;28.87;41.93;100806.35;108140;1285;21992;-55
2023/10/14 09:12:32;;;;;;;7.50;3.30;;;;;;;28.92;41.78;100800.86;108192;1288;22035;-67
2023/10/14 09:14:57;;;;;;;11.40;3.50;;;;;;;28.96;41.34;100794.95;108132;1284;21999;-58
2023/10/14 09:17:23;;;;;;;6.00;3.20;;;;;;;28.99;41.69;100786.20;108139;1286;21984;-67
2023/10/14 09:19:50;;;;;;;9.90;3.40;;;;;;;29.07;41.46;100784.42;108112;1286;21998;-66
2023/10/14 09:22:20;;;;;;;7.40;3.80;;;;;;;29.16;41.70;100780.86;108159;1288;21995;-65
2023/10/14 09:24:48;;;;;;;11.30;3.70;;;;;;;29.28;41.73;100773.64;108180;1288;21993;-58
2023/10/14 09:27:14;;;;;;;5.60;3.20;;;;;;;29.41;41.60;100772.58;108169;1279;21995;-58
2023/10/14 09:29:39;;;;;;;8.10;3.30;;;;;;;29.45;40.96;100767.75;108112;1288;21995;-58
2023/10/14 09:32:05;;;;;;;9.20;3.40;;;;;;;29.44;40.96;100769.45;108124;1288;22031;-67
2023/10/14 09:34:31;;;;;;;10.60;3.80;;;;;;;29.47;40.43;100768.51;108108;1288;22015;-66
2023/10/14 09:36:57;;;;;;;9.60;3.30;;;;;;;29.53;40.80;100767.60;108147;1286;23741;-58
2023/10/14 09:39:28;;;;;;;6.60;3.10;;;;;;;29.60;40.79;100761.70;108112;1286;21996;-67
2023/10/14 09:41:54;;;;;;;7.90;3.10;;;;;;;29.75;40.87;100763.19;108130;1283;22463;-66
2023/10/14 09:44:21;;;;;;;9.60;3.10;;;;;;;29.85;40.51;100755.27;108090;1286;22009;-59
2023/10/14 09:46:47;;;;;;;11.30;3.50;;;;;;;29.98;40.44;100753.05;108170;1283;21996;-59
2023/10/14 09:49:12;;;;;;;7.50;3.60;;;;;;;30.13;40.07;100748.87;108151;1282;21996;-66
2023/10/14 09:51:38;;;;;;;6.20;3.10;;;;;;;30.15;39.59;100749.79;108130;1278;21993;-58
2023/10/14 09:54:04;;;;;;;8.10;2.80;;;;;;;30.18;39.97;100745.71;107857;1288;21988;-65
2023/10/14 09:56:30;;;;;;;10.40;3.40;;;;;;;30.27;39.93;100738.86;107997;1288;22104;-60
2023/10/14 09:58:56;;;;;;;7.40;3.10;;;;;;;30.33;39.38;100739.79;107782;1287;22000;-59
2023/10/14 10:01:24;;;;;;;9.00;2.90;;;;;;;30.27;39.20;100737.08;107974;1288;22015;-59
2023/10/14 10:04:18;;;;;;;5.50;2.80;;;;;;;30.19;39.03;100732.92;108206;1282;21997;-58
2023/10/14 10:06:58;;;;;;;8.40;2.70;;;;;;;30.14;39.33;100729.35;108154;1286;22028;-58
2023/10/14 10:09:57;;;;;;;18.00;3.60;;;;;;;30.16;39.22;100730.99;108143;1279;22644;-59
2023/10/14 10:12:23;;;;;;;6.00;2.90;;;;;;;30.25;39.31;100727.30;108160;1283;22085;-67
2023/10/14 10:14:57;;;;;;;8.20;3.00;;;;;;;30.39;39.50;100722.21;107970;1288;21994;-66
2023/10/14 10:17:24;;;;;;;11.60;3.60;;;;;;;30.48;39.33;100718.91;108099;1288;21997;-59
2023/10/14 10:20:12;;;;;;;4.50;2.40;;;;;;;30.47;39.22;100718.27;107981;1287;21979;-59
2023/10/14 10:22:41;;;;;;;8.40;3.20;;;;;;;30.46;39.12;100715.67;108103;1286;22189;-67
2023/10/14 10:25:09;;;;;;;5.70;2.50;;;;;;;30.53;39.20;100710.67;108253;1286;22003;-59
2023/10/14 10:27:39;;;;;;;8.10;3.10;;;;;;;30.69;39.00;100707.27;108152;1283;21995;-58
2023/10/14 10:30:11;;;;;;;9.00;3.10;;;;;;;30.74;38.14;100707.52;108096;1280;21995;-59
2023/10/14 10:32:38;;;;;;;8.30;3.10;;;;;;;30.69;38.56;100703.77;108111;1287;23033;-58
2023/10/14 10:35:07;;;;;;;6.00;2.80;;;;;;;30.69;38.47;100702.13;108101;1277;21996;-59
2023/10/14 10:37:52;;;;;;;6.60;2.50;;;;;;;30.68;38.38;100700.75;108070;1283;22011;-59
2023/10/14 10:40:27;;;;;;;6.10;2.80;;;;;;;30.72;38.22;100697.75;108150;1287;21994;-59
2023/10/14 10:43:05;;;;;;;5.50;2.80;;;;;;;30.79;38.18;100696.49;108110;1277;21995;-59
2023/10/14 10:45:35;;;;;;;7.50;2.60;;;;;;;30.88;38.08;100688.27;107845;1286;21990;-66
2023/10/14 10:48:03;;;;;;;5.10;2.40;;;;;;;30.93;38.03;100681.96;108140;1276;22007;-59
2023/10/14 10:50:37;;;;;;;4.90;2.40;;;;;;;30.95;38.01;100682.35;108085;1276;22072;-67
2023/10/14 10:53:05;;;;;;;11.80;3.00;;;;;;;30.96;37.63;100681.55;108144;1286;22742;-60
2023/10/14 10:55:31;;;;;;;19.70;3.70;;;;;;;30.96;37.76;100675.94;108123;1276;21997;-68
2023/10/14 10:58:00;;;;;;;8.00;2.70;;;;;;;30.96;37.47;100673.94;108155;1286;21990;-67
2023/10/14 11:00:30;;;;;;;14.40;4.00;;;;;;;30.96;37.57;100667.21;108169;1286;21995;-68
2023/10/14 11:02:56;;;;;;;8.90;2.60;;;;;;;30.91;37.29;100665.02;108198;1282;21995;-66
2023/10/14 11:05:24;;;;;;;8.60;2.90;;;;;;;30.90;37.59;100662.70;108094;1282;22000;-67
2023/10/14 11:07:52;;;;;;;7.50;2.70;;;;;;;31.01;37.40;100664.58;108147;1281;21995;-67
2023/10/14 11:10:22;;;;;;;5.70;2.90;;;;;;;31.13;36.87;100666.16;108115;1283;22202;-67
2023/10/14 11:12:48;;;;;;;;;;;;;;;31.18;36.54;100666.14;108147;1280;21996;-67
2023/10/14 11:15:23;;;;;;;6.70;2.60;;;;;;;31.10;36.43;100665.42;108095;1276;21993;-59
2023/10/14 11:17:53;;;;;;;8.50;3.30;;;;;;;31.03;35.96;100664.25;108162;1286;21993;-61
2023/10/14 11:20:20;;;;;;;5.60;2.80;;;;;;;30.96;36.13;100664.67;108135;1286;22009;-58
2023/10/14 11:22:45;;;;;;;9.00;2.90;;;;;;;30.89;35.87;100660.48;108072;1286;22237;-58
2023/10/14 11:25:13;;;;;;;6.50;3.20;;;;;;;30.86;35.90;100658.23;108015;1282;22029;-59
2023/10/14 11:27:41;;;;;;;14.50;10.10;;;;;;;30.84;36.02;100657.34;107960;1286;182193;-60
2023/10/14 11:30:11;;;;;;;10.30;6.50;;;;;;;30.83;35.97;100655.25;108058;1282;21994;-59
2023/10/14 11:32:36;;;;;;;9.90;4.60;;;;;;;30.87;35.85;100649.27;108110;1283;21968;-66
2023/10/14 11:35:03;;;;;;;7.70;3.10;;;;;;;30.94;35.88;100649.82;107952;1284;22164;-66
2023/10/14 11:37:36;;;;;;;6.00;3.20;;;;;;;30.98;35.57;100645.61;108181;1276;22036;-60
2023/10/14 11:40:13;;;;;;;7.10;2.90;;;;;;;30.97;35.54;100647.57;108011;1286;22174;-59
2023/10/14 11:42:39;;;;;;;5.80;3.10;;;;;;;30.97;35.55;100645.59;108185;1287;22157;-66
2023/10/14 11:45:07;;;;;;;11.50;2.90;;;;;;;30.97;35.53;100641.81;108059;1286;21998;-59
2023/10/14 11:47:36;;;;;;;9.20;3.00;;;;;;;30.98;35.26;100640.95;108063;1287;22001;-59
2023/10/14 11:50:11;;;;;;;7.60;2.80;;;;;;;30.97;35.23;100640.70;108154;1287;21998;-66
2023/10/14 11:52:43;;;;;;;6.00;2.90;;;;;;;30.89;35.14;100637.26;108108;1286;22034;-67
2023/10/14 11:55:16;;;;;;;5.60;2.70;;;;;;;30.85;35.21;100637.64;108082;1280;22032;-66
2023/10/14 11:57:45;;;;;;;6.40;2.50;;;;;;;30.81;35.36;100635.90;108068;1286;22123;-66
2023/10/14 12:00:12;;;;;;;6.20;2.50;;;;;;;30.77;34.86;100636.64;108090;1287;22163;-66